sensor_id;sensor_type;location;lat;lon;timestamp;pressure;altitude;pressure_sealevel;temperature;humidity
7026;BME280;3554;42.132;24.786;2023-04-28T00:02:22;99565.56;;;11.40;100.00
7026;BME280;3554;42.132;24.786;2023-04-28T00:04:51;99556.66;;;11.44;100.00
7026;BME280;3554;42.132;24.786;2023-04-28T00:07:18;99561.16;;;11.40;100.00
7026;BME280;3554;42.132;24.786;2023-04-28T00:09:47;99555.72;;;11.45;100.00
7026;BME280;3554;42.132;24.786;2023-04-28T00:12:13;99554.75;;;11.47;98.70
7026;BME280;3554;42.132;24.786;2023-04-28T00:14:40;99563.41;;;11.49;100.00
7026;BME280;3554;42.132;24.786;2023-04-28T00:17:07;99560.59;;;11.54;99.72
7026;BME280;3554;42.132;24.786;2023-04-28T00:19:35;99557.88;;;11.57;99.91
7026;BME280;3554;42.132;24.786;2023-04-28T00:22:03;99561.38;;;11.56;100.00
7026;BME280;3554;42.132;24.786;2023-04-28T00:24:30;99564.31;;;11.48;100.00
7026;BME280;3554;42.132;24.786;2023-04-28T00:26:59;99567.19;;;11.64;100.00
7026;BME280;3554;42.132;24.786;2023-04-28T00:29:27;99563.13;;;11.57;100.00
7026;BME280;3554;42.132;24.786;2023-04-28T00:31:54;99566.84;;;11.51;100.00
7026;BME280;3554;42.132;24.786;2023-04-28T00:34:21;99569.75;;;11.44;100.00
7026;BME280;3554;42.132;24.786;2023-04-28T00:36:47;99568.72;;;11.48;100.00
7026;BME280;3554;42.132;24.786;2023-04-28T00:39:14;99567.72;;;11.50;100.00
7026;BME280;3554;42.132;24.786;2023-04-28T00:41:42;99575.91;;;11.43;100.00
7026;BME280;3554;42.132;24.786;2023-04-28T00:44:11;99562.41;;;11.52;100.00
7026;BME280;3554;42.132;24.786;2023-04-28T00:46:37;99579.00;;;11.52;100.00
7026;BME280;3554;42.132;24.786;2023-04-28T00:49:04;99558.38;;;11.23;100.00
7026;BME280;3554;42.132;24.786;2023-04-28T00:51:31;99578.97;;;11.32;100.00
7026;BME280;3554;42.132;24.786;2023-04-28T00:53:58;99570.63;;;11.23;100.00
7026;BME280;3554;42.132;24.786;2023-04-28T00:56:26;99575.00;;;11.22;100.00
7026;BME280;3554;42.132;24.786;2023-04-28T00:58:55;99575.75;;;11.26;100.00
7026;BME280;3554;42.132;24.786;2023-04-28T01:01:23;99580.91;;;11.27;100.00
7026;BME280;3554;42.132;24.786;2023-04-28T01:03:50;99583.38;;;11.32;100.00
7026;BME280;3554;42.132;24.786;2023-04-28T01:06:18;99575.22;;;11.18;100.00
7026;BME280;3554;42.132;24.786;2023-04-28T01:08:47;99578.97;;;11.32;100.00
7026;BME280;3554;42.132;24.786;2023-04-28T01:11:15;99564.16;;;10.88;100.00
7026;BME280;3554;42.132;24.786;2023-04-28T01:13:41;99574.50;;;11.13;100.00
7026;BME280;3554;42.132;24.786;2023-04-28T01:16:08;99586.28;;;11.03;100.00
7026;BME280;3554;42.132;24.786;2023-04-28T01:18:37;99576.50;;;10.85;100.00
7026;BME280;3554;42.132;24.786;2023-04-28T01:21:05;99583.63;;;10.81;100.00
7026;BME280;3554;42.132;24.786;2023-04-28T01:23:32;99580.03;;;10.84;100.00
7026;BME280;3554;42.132;24.786;2023-04-28T01:26:00;99570.34;;;10.64;100.00
7026;BME280;3554;42.132;24.786;2023-04-28T01:28:27;99571.41;;;10.58;100.00
7026;BME280;3554;42.132;24.786;2023-04-28T01:30:54;99565.66;;;10.72;100.00
7026;BME280;3554;42.132;24.786;2023-04-28T01:33:21;99556.19;;;10.68;100.00
7026;BME280;3554;42.132;24.786;2023-04-28T01:35:47;99569.41;;;10.65;100.00
7026;BME280;3554;42.132;24.786;2023-04-28T01:38:14;99567.81;;;10.61;100.00
7026;BME280;3554;42.132;24.786;2023-04-28T01:40:41;99565.59;;;10.50;100.00
7026;BME280;3554;42.132;24.786;2023-04-28T01:43:09;99572.63;;;10.48;100.00
7026;BME280;3554;42.132;24.786;2023-04-28T01:45:36;99565.44;;;10.55;100.00
7026;BME280;3554;42.132;24.786;2023-04-28T01:48:03;99580.66;;;10.44;100.00
7026;BME280;3554;42.132;24.786;2023-04-28T01:50:30;99569.06;;;10.51;100.00
7026;BME280;3554;42.132;24.786;2023-04-28T01:52:56;99570.81;;;10.50;100.00
7026;BME280;3554;42.132;24.786;2023-04-28T01:55:23;99575.38;;;10.45;100.00
7026;BME280;3554;42.132;24.786;2023-04-28T01:57:50;99568.28;;;10.49;100.00
7026;BME280;3554;42.132;24.786;2023-04-28T02:00:19;99578.78;;;10.47;100.00
7026;BME280;3554;42.132;24.786;2023-04-28T02:02:46;99571.53;;;10.32;100.00
7026;BME280;3554;42.132;24.786;2023-04-28T02:05:12;99584.13;;;10.21;100.00
7026;BME280;3554;42.132;24.786;2023-04-28T02:07:39;99573.72;;;10.20;100.00
7026;BME280;3554;42.132;24.786;2023-04-28T02:10:07;99573.06;;;10.13;100.00
7026;BME280;3554;42.132;24.786;2023-04-28T02:12:34;99568.03;;;10.07;100.00
7026;BME280;3554;42.132;24.786;2023-04-28T02:15:00;99571.94;;;9.96;100.00
7026;BME280;3554;42.132;24.786;2023-04-28T02:17:30;99574.00;;;9.86;100.00
7026;BME280;3554;42.132;24.786;2023-04-28T02:19:57;99546.66;;;9.71;100.00
7026;BME280;3554;42.132;24.786;2023-04-28T02:22:23;99569.81;;;9.82;100.00
7026;BME280;3554;42.132;24.786;2023-04-28T02:24:50;99568.94;;;9.82;100.00
7026;BME280;3554;42.132;24.786;2023-04-28T02:27:17;99569.88;;;9.79;100.00
7026;BME280;3554;42.132;24.786;2023-04-28T02:29:45;99570.75;;;9.80;100.00
7026;BME280;3554;42.132;24.786;2023-04-28T02:32:11;99576.84;;;9.80;100.00
7026;BME280;3554;42.132;24.786;2023-04-28T02:34:39;99571.56;;;9.82;100.00
7026;BME280;3554;42.132;24.786;2023-04-28T02:37:06;99578.81;;;9.73;100.00
7026;BME280;3554;42.132;24.786;2023-04-28T02:39:33;99566.81;;;9.68;100.00
7026;BME280;3554;42.132;24.786;2023-04-28T02:42:00;99572.91;;;9.67;100.00
7026;BME280;3554;42.132;24.786;2023-04-28T02:44:29;99465.09;;;8.85;100.00
7026;BME280;3554;42.132;24.786;2023-04-28T02:46:56;99579.31;;;9.58;100.00
7026;BME280;3554;42.132;24.786;2023-04-28T02:49:23;99585.47;;;9.57;100.00
7026;BME280;3554;42.132;24.786;2023-04-28T02:51:51;99589.81;;;9.57;100.00
7026;BME280;3554;42.132;24.786;2023-04-28T02:54:18;99595.19;;;9.52;100.00
7026;BME280;3554;42.132;24.786;2023-04-28T02:56:51;99590.88;;;9.51;100.00
7026;BME280;3554;42.132;24.786;2023-04-28T02:59:18;99596.97;;;9.52;100.00
7026;BME280;3554;42.132;24.786;2023-04-28T03:01:45;99609.00;;;9.56;100.00
7026;BME280;3554;42.132;24.786;2023-04-28T03:04:12;99607.38;;;9.53;100.00
7026;BME280;3554;42.132;24.786;2023-04-28T03:06:39;99607.66;;;9.44;100.00
7026;BME280;3554;42.132;24.786;2023-04-28T03:09:07;99613.69;;;9.46;100.00
7026;BME280;3554;42.132;24.786;2023-04-28T03:11:34;99587.97;;;9.34;100.00
7026;BME280;3554;42.132;24.786;2023-04-28T03:14:01;99605.28;;;9.37;100.00
7026;BME280;3554;42.132;24.786;2023-04-28T03:16:28;99586.75;;;9.18;100.00
7026;BME280;3554;42.132;24.786;2023-04-28T03:18:54;99616.59;;;9.37;100.00
7026;BME280;3554;42.132;24.786;2023-04-28T03:21:21;99621.91;;;9.34;100.00
7026;BME280;3554;42.132;24.786;2023-04-28T03:23:48;99625.06;;;9.44;100.00
7026;BME280;3554;42.132;24.786;2023-04-28T03:26:16;99629.78;;;9.33;100.00
7026;BME280;3554;42.132;24.786;2023-04-28T03:28:43;99637.81;;;9.27;100.00
7026;BME280;3554;42.132;24.786;2023-04-28T03:31:10;99640.44;;;9.27;100.00
7026;BME280;3554;42.132;24.786;2023-04-28T03:33:37;99651.88;;;9.23;100.00
7026;BME280;3554;42.132;24.786;2023-04-28T03:36:04;99660.53;;;9.25;100.00
7026;BME280;3554;42.132;24.786;2023-04-28T03:38:31;99655.47;;;9.19;100.00
7026;BME280;3554;42.132;24.786;2023-04-28T03:40:57;99656.44;;;9.16;100.00
7026;BME280;3554;42.132;24.786;2023-04-28T03:43:25;99666.50;;;9.28;100.00
7026;BME280;3554;42.132;24.786;2023-04-28T03:45:52;99664.50;;;9.64;100.00
7026;BME280;3554;42.132;24.786;2023-04-28T03:48:19;99673.16;;;9.92;100.00
7026;BME280;3554;42.132;24.786;2023-04-28T03:50:46;99677.88;;;10.33;100.00
7026;BME280;3554;42.132;24.786;2023-04-28T03:53:12;99685.41;;;10.42;100.00
7026;BME280;3554;42.132;24.786;2023-04-28T03:55:39;99691.75;;;10.60;100.00
7026;BME280;3554;42.132;24.786;2023-04-28T03:58:06;99692.28;;;10.69;100.00
7026;BME280;3554;42.132;24.786;2023-04-28T04:00:34;99688.47;;;10.78;98.32
7026;BME280;3554;42.132;24.786;2023-04-28T04:03:01;99701.53;;;11.03;96.08
7026;BME280;3554;42.132;24.786;2023-04-28T04:05:28;99707.03;;;11.18;94.99
7026;BME280;3554;42.132;24.786;2023-04-28T04:07:55;99717.00;;;11.32;93.61
7026;BME280;3554;42.132;24.786;2023-04-28T04:10:22;99713.66;;;11.50;92.58
7026;BME280;3554;42.132;24.786;2023-04-28T04:12:49;99725.34;;;11.64;90.06
7026;BME280;3554;42.132;24.786;2023-04-28T04:15:15;99720.75;;;11.71;89.72
7026;BME280;3554;42.132;24.786;2023-04-28T04:17:43;99713.78;;;11.70;87.37
7026;BME280;3554;42.132;24.786;2023-04-28T04:20:11;99723.47;;;11.68;86.91
7026;BME280;3554;42.132;24.786;2023-04-28T04:22:37;99723.59;;;11.65;85.76
7026;BME280;3554;42.132;24.786;2023-04-28T04:25:05;99722.31;;;11.75;84.37
7026;BME280;3554;42.132;24.786;2023-04-28T04:27:32;99729.34;;;11.96;84.11
7026;BME280;3554;42.132;24.786;2023-04-28T04:29:59;99742.63;;;12.13;83.66
7026;BME280;3554;42.132;24.786;2023-04-28T04:32:25;99727.28;;;12.24;82.51
7026;BME280;3554;42.132;24.786;2023-04-28T04:34:54;99734.31;;;12.02;81.57
7026;BME280;3554;42.132;24.786;2023-04-28T04:37:21;99730.00;;;12.01;81.72
7026;BME280;3554;42.132;24.786;2023-04-28T04:39:48;99717.47;;;12.08;82.48
7026;BME280;3554;42.132;24.786;2023-04-28T04:42:15;99730.22;;;12.17;83.75
7026;BME280;3554;42.132;24.786;2023-04-28T04:44:42;99739.78;;;12.18;82.34
7026;BME280;3554;42.132;24.786;2023-04-28T04:47:08;99736.06;;;12.03;82.36
7026;BME280;3554;42.132;24.786;2023-04-28T04:49:35;99743.03;;;12.24;82.98
7026;BME280;3554;42.132;24.786;2023-04-28T04:52:03;99734.63;;;12.16;81.63
7026;BME280;3554;42.132;24.786;2023-04-28T04:54:31;99749.75;;;12.31;82.14
7026;BME280;3554;42.132;24.786;2023-04-28T04:56:58;99757.34;;;12.37;81.92
7026;BME280;3554;42.132;24.786;2023-04-28T04:59:24;99749.75;;;12.51;80.48
7026;BME280;3554;42.132;24.786;2023-04-28T05:01:52;99761.31;;;12.47;81.21
7026;BME280;3554;42.132;24.786;2023-04-28T05:04:19;99765.66;;;12.68;78.72
7026;BME280;3554;42.132;24.786;2023-04-28T05:06:46;99766.63;;;12.66;80.48
7026;BME280;3554;42.132;24.786;2023-04-28T05:09:14;99762.31;;;12.65;80.46
7026;BME280;3554;42.132;24.786;2023-04-28T05:11:41;99772.44;;;12.32;78.97
7026;BME280;3554;42.132;24.786;2023-04-28T05:14:08;99759.81;;;12.20;80.28
7026;BME280;3554;42.132;24.786;2023-04-28T05:16:34;99771.78;;;12.27;80.82
7026;BME280;3554;42.132;24.786;2023-04-28T05:19:01;99774.50;;;12.46;80.06
7026;BME280;3554;42.132;24.786;2023-04-28T05:21:28;99774.84;;;12.58;79.38
7026;BME280;3554;42.132;24.786;2023-04-28T05:23:55;99780.28;;;12.54;78.87
7026;BME280;3554;42.132;24.786;2023-04-28T05:26:23;99776.94;;;12.90;79.89
7026;BME280;3554;42.132;24.786;2023-04-28T05:28:50;99788.91;;;12.98;76.14
7026;BME280;3554;42.132;24.786;2023-04-28T05:31:17;99779.63;;;12.89;75.28
7026;BME280;3554;42.132;24.786;2023-04-28T05:33:44;99797.81;;;12.73;75.13
7026;BME280;3554;42.132;24.786;2023-04-28T05:36:11;99793.97;;;13.02;74.35
7026;BME280;3554;42.132;24.786;2023-04-28T05:38:41;99788.91;;;12.98;73.45
7026;BME280;3554;42.132;24.786;2023-04-28T05:41:07;99764.03;;;13.06;73.57
7026;BME280;3554;42.132;24.786;2023-04-28T05:43:36;99794.38;;;13.13;74.66
7026;BME280;3554;42.132;24.786;2023-04-28T05:46:03;99786.47;;;13.52;72.34
7026;BME280;3554;42.132;24.786;2023-04-28T05:48:29;99795.28;;;13.51;72.31
7026;BME280;3554;42.132;24.786;2023-04-28T05:50:56;99798.16;;;13.26;73.65
7026;BME280;3554;42.132;24.786;2023-04-28T05:53:23;99803.06;;;13.34;70.14
7026;BME280;3554;42.132;24.786;2023-04-28T05:55:50;99800.28;;;13.37;69.47
7026;BME280;3554;42.132;24.786;2023-04-28T05:58:17;99803.59;;;13.60;70.30
7026;BME280;3554;42.132;24.786;2023-04-28T06:00:45;99809.84;;;13.76;66.82
7026;BME280;3554;42.132;24.786;2023-04-28T06:03:11;99821.50;;;13.52;65.39
7026;BME280;3554;42.132;24.786;2023-04-28T06:05:40;99819.28;;;13.43;64.93
7026;BME280;3554;42.132;24.786;2023-04-28T06:08:06;99809.72;;;13.61;65.22
7026;BME280;3554;42.132;24.786;2023-04-28T06:10:33;99804.72;;;13.55;65.16
7026;BME280;3554;42.132;24.786;2023-04-28T06:13:00;99820.38;;;13.95;65.53
7026;BME280;3554;42.132;24.786;2023-04-28T06:15:29;99816.63;;;14.01;63.12
7026;BME280;3554;42.132;24.786;2023-04-28T06:17:57;99812.13;;;14.03;63.67
7026;BME280;3554;42.132;24.786;2023-04-28T06:20:24;99817.53;;;13.99;64.22
7026;BME280;3554;42.132;24.786;2023-04-28T06:22:51;99817.94;;;14.28;58.84
7026;BME280;3554;42.132;24.786;2023-04-28T06:25:17;99816.94;;;14.12;61.93
7026;BME280;3554;42.132;24.786;2023-04-28T06:27:44;99827.19;;;14.18;62.59
7026;BME280;3554;42.132;24.786;2023-04-28T06:30:16;99833.97;;;14.59;62.57
7026;BME280;3554;42.132;24.786;2023-04-28T06:32:43;99834.13;;;14.73;62.34
7026;BME280;3554;42.132;24.786;2023-04-28T06:35:12;99832.19;;;14.59;62.33
7026;BME280;3554;42.132;24.786;2023-04-28T06:37:38;99832.16;;;14.42;60.63
7026;BME280;3554;42.132;24.786;2023-04-28T06:40:07;99830.13;;;14.47;63.22
7026;BME280;3554;42.132;24.786;2023-04-28T06:42:33;99826.97;;;14.41;62.92
7026;BME280;3554;42.132;24.786;2023-04-28T06:45:00;99826.81;;;14.44;64.97
7026;BME280;3554;42.132;24.786;2023-04-28T06:47:27;99825.03;;;14.44;62.85
7026;BME280;3554;42.132;24.786;2023-04-28T06:49:54;99799.88;;;14.20;65.08
7026;BME280;3554;42.132;24.786;2023-04-28T06:52:22;99831.25;;;14.77;62.40
7026;BME280;3554;42.132;24.786;2023-04-28T06:54:49;99830.63;;;15.07;60.89
7026;BME280;3554;42.132;24.786;2023-04-28T06:57:16;99831.16;;;15.13;62.75
7026;BME280;3554;42.132;24.786;2023-04-28T06:59:43;99834.28;;;15.21;60.88
7026;BME280;3554;42.132;24.786;2023-04-28T07:02:10;99841.03;;;15.27;55.96
7026;BME280;3554;42.132;24.786;2023-04-28T07:04:37;99845.53;;;15.25;55.83
7026;BME280;3554;42.132;24.786;2023-04-28T07:07:04;99832.22;;;15.60;58.84
7026;BME280;3554;42.132;24.786;2023-04-28T07:09:34;99834.94;;;15.74;55.34
7026;BME280;3554;42.132;24.786;2023-04-28T07:12:00;99824.31;;;15.76;54.11
7026;BME280;3554;42.132;24.786;2023-04-28T07:14:28;99832.41;;;15.73;56.45
7026;BME280;3554;42.132;24.786;2023-04-28T07:16:55;99832.28;;;16.07;54.56
7026;BME280;3554;42.132;24.786;2023-04-28T07:19:22;99837.00;;;15.85;52.15
7026;BME280;3554;42.132;24.786;2023-04-28T07:21:48;99837.13;;;16.30;54.58
7026;BME280;3554;42.132;24.786;2023-04-28T07:24:15;99838.09;;;16.43;48.56
7026;BME280;3554;42.132;24.786;2023-04-28T07:26:43;99837.38;;;16.10;47.31
7026;BME280;3554;42.132;24.786;2023-04-28T07:29:10;99833.00;;;16.40;47.58
7026;BME280;3554;42.132;24.786;2023-04-28T07:31:38;99827.81;;;16.39;48.46
7026;BME280;3554;42.132;24.786;2023-04-28T07:34:04;99831.03;;;16.59;47.77
7026;BME280;3554;42.132;24.786;2023-04-28T07:36:31;99827.38;;;16.31;50.57
7026;BME280;3554;42.132;24.786;2023-04-28T07:38:59;99827.84;;;16.23;49.59
7026;BME280;3554;42.132;24.786;2023-04-28T07:41:26;99832.50;;;16.18;52.38
7026;BME280;3554;42.132;24.786;2023-04-28T07:43:54;99824.31;;;16.38;50.95
7026;BME280;3554;42.132;24.786;2023-04-28T07:46:21;99830.28;;;15.95;48.63
7026;BME280;3554;42.132;24.786;2023-04-28T07:48:48;99834.78;;;14.95;52.63
7026;BME280;3554;42.132;24.786;2023-04-28T07:51:15;99817.63;;;14.52;57.75
7026;BME280;3554;42.132;24.786;2023-04-28T07:53:42;99820.94;;;15.41;63.63
7026;BME280;3554;42.132;24.786;2023-04-28T07:56:08;99818.03;;;15.94;56.16
7026;BME280;3554;42.132;24.786;2023-04-28T07:58:36;99811.97;;;15.92;52.84
7026;BME280;3554;42.132;24.786;2023-04-28T08:01:04;99811.28;;;16.35;54.86
7026;BME280;3554;42.132;24.786;2023-04-28T08:03:31;99811.03;;;16.55;50.55
7026;BME280;3554;42.132;24.786;2023-04-28T08:05:59;99813.22;;;16.63;54.57
7026;BME280;3554;42.132;24.786;2023-04-28T08:08:26;99816.63;;;16.94;49.26
7026;BME280;3554;42.132;24.786;2023-04-28T08:10:53;99811.34;;;16.94;44.98
7026;BME280;3554;42.132;24.786;2023-04-28T08:13:19;99816.91;;;16.60;45.40
7026;BME280;3554;42.132;24.786;2023-04-28T08:15:46;99812.31;;;16.17;48.02
7026;BME280;3554;42.132;24.786;2023-04-28T08:18:15;99796.97;;;16.08;48.08
7026;BME280;3554;42.132;24.786;2023-04-28T08:20:42;99804.28;;;16.34;50.06
7026;BME280;3554;42.132;24.786;2023-04-28T08:23:08;99803.28;;;15.90;51.12
7026;BME280;3554;42.132;24.786;2023-04-28T08:25:36;99813.94;;;15.40;52.00
7026;BME280;3554;42.132;24.786;2023-04-28T08:28:02;99801.94;;;15.18;53.48
7026;BME280;3554;42.132;24.786;2023-04-28T08:30:30;99777.78;;;15.58;58.62
7026;BME280;3554;42.132;24.786;2023-04-28T08:32:58;99791.09;;;16.19;56.47
7026;BME280;3554;42.132;24.786;2023-04-28T08:35:26;99786.22;;;16.42;51.99
7026;BME280;3554;42.132;24.786;2023-04-28T08:37:53;99789.47;;;16.77;55.79
7026;BME280;3554;42.132;24.786;2023-04-28T08:40:19;99791.03;;;16.65;51.54
7026;BME280;3554;42.132;24.786;2023-04-28T08:42:48;99779.28;;;16.85;51.56
7026;BME280;3554;42.132;24.786;2023-04-28T08:45:15;99771.47;;;16.83;52.81
7026;BME280;3554;42.132;24.786;2023-04-28T08:47:42;99781.31;;;15.74;50.82
7026;BME280;3554;42.132;24.786;2023-04-28T08:50:13;99780.16;;;15.14;53.97
7026;BME280;3554;42.132;24.786;2023-04-28T08:52:41;99765.84;;;14.85;56.33
7026;BME280;3554;42.132;24.786;2023-04-28T08:55:10;99747.25;;;15.21;55.27
7026;BME280;3554;42.132;24.786;2023-04-28T08:57:38;99777.97;;;16.17;52.87
7026;BME280;3554;42.132;24.786;2023-04-28T09:00:06;99767.06;;;16.07;51.87
7026;BME280;3554;42.132;24.786;2023-04-28T09:02:33;99751.25;;;16.53;53.58
7026;BME280;3554;42.132;24.786;2023-04-28T09:05:02;99764.78;;;17.20;55.57
7026;BME280;3554;42.132;24.786;2023-04-28T09:07:29;99762.59;;;17.27;52.41
7026;BME280;3554;42.132;24.786;2023-04-28T09:10:16;99751.88;;;17.58;58.77
7026;BME280;3554;42.132;24.786;2023-04-28T09:12:44;99763.00;;;15.71;66.22
7026;BME280;3554;42.132;24.786;2023-04-28T09:15:24;99731.44;;;15.54;71.42
7026;BME280;3554;42.132;24.786;2023-04-28T09:17:51;99764.81;;;15.38;73.29
7026;BME280;3554;42.132;24.786;2023-04-28T09:20:21;99757.81;;;15.37;70.62
7026;BME280;3554;42.132;24.786;2023-04-28T09:22:49;99752.09;;;15.61;66.64
7026;BME280;3554;42.132;24.786;2023-04-28T09:25:18;99758.97;;;15.16;76.13
7026;BME280;3554;42.132;24.786;2023-04-28T09:27:46;99754.09;;;15.73;79.97
7026;BME280;3554;42.132;24.786;2023-04-28T09:30:13;99746.69;;;16.25;70.22
7026;BME280;3554;42.132;24.786;2023-04-28T09:32:40;99746.72;;;15.63;66.59
7026;BME280;3554;42.132;24.786;2023-04-28T09:35:07;99743.06;;;15.50;68.56
7026;BME280;3554;42.132;24.786;2023-04-28T09:37:34;99743.94;;;15.50;70.57
7026;BME280;3554;42.132;24.786;2023-04-28T09:40:07;99742.19;;;16.12;63.78
7026;BME280;3554;42.132;24.786;2023-04-28T09:42:36;99744.81;;;16.72;59.59
7026;BME280;3554;42.132;24.786;2023-04-28T09:45:04;99736.81;;;17.02;56.65
7026;BME280;3554;42.132;24.786;2023-04-28T09:47:34;99735.47;;;16.81;61.74
7026;BME280;3554;42.132;24.786;2023-04-28T09:50:03;99710.44;;;17.00;58.21
7026;BME280;3554;42.132;24.786;2023-04-28T09:52:31;99737.09;;;17.26;57.35
7026;BME280;3554;42.132;24.786;2023-04-28T09:55:00;99722.25;;;16.81;58.68
7026;BME280;3554;42.132;24.786;2023-04-28T09:57:29;99728.75;;;16.00;61.68
7026;BME280;3554;42.132;24.786;2023-04-28T09:59:58;99715.03;;;16.09;61.96
7026;BME280;3554;42.132;24.786;2023-04-28T10:02:25;99700.97;;;16.39;62.51
7026;BME280;3554;42.132;24.786;2023-04-28T10:04:53;99721.56;;;16.77;64.09
7026;BME280;3554;42.132;24.786;2023-04-28T10:07:20;99677.03;;;16.71;63.90
7026;BME280;3554;42.132;24.786;2023-04-28T10:09:48;99714.88;;;17.00;60.41
7026;BME280;3554;42.132;24.786;2023-04-28T10:12:15;99723.88;;;16.83;59.52
7026;BME280;3554;42.132;24.786;2023-04-28T10:14:43;99719.38;;;15.95;62.71
7026;BME280;3554;42.132;24.786;2023-04-28T10:17:12;99722.56;;;15.70;66.61
7026;BME280;3554;42.132;24.786;2023-04-28T10:19:39;99710.72;;;15.93;67.78
7026;BME280;3554;42.132;24.786;2023-04-28T10:22:27;99705.38;;;16.24;62.70
7026;BME280;3554;42.132;24.786;2023-04-28T10:25:11;99701.63;;;16.72;62.03
7026;BME280;3554;42.132;24.786;2023-04-28T10:27:45;99697.41;;;17.40;61.43
7026;BME280;3554;42.132;24.786;2023-04-28T10:30:13;99656.88;;;17.25;58.98
7026;BME280;3554;42.132;24.786;2023-04-28T10:32:43;99696.34;;;17.97;52.84
7026;BME280;3554;42.132;24.786;2023-04-28T10:38:16;99674.38;;;16.85;50.96
7026;BME280;3554;42.132;24.786;2023-04-28T10:40:45;99683.69;;;16.33;51.91
7026;BME280;3554;42.132;24.786;2023-04-28T10:43:13;99683.41;;;16.53;54.57
7026;BME280;3554;42.132;24.786;2023-04-28T10:46:00;99665.28;;;16.89;55.56
7026;BME280;3554;42.132;24.786;2023-04-28T10:51:33;99678.78;;;17.41;48.25
7026;BME280;3554;42.132;24.786;2023-04-28T10:54:15;99677.13;;;17.12;50.97
7026;BME280;3554;42.132;24.786;2023-04-28T10:57:20;99681.16;;;16.89;50.79
7026;BME280;3554;42.132;24.786;2023-04-28T10:59:48;99666.13;;;16.48;56.15
7026;BME280;3554;42.132;24.786;2023-04-28T11:02:34;99680.34;;;15.86;57.73
7026;BME280;3554;42.132;24.786;2023-04-28T11:05:26;99673.59;;;16.55;55.46
7026;BME280;3554;42.132;24.786;2023-04-28T11:11:19;99671.50;;;17.31;53.20
7026;BME280;3554;42.132;24.786;2023-04-28T11:13:47;99672.56;;;17.28;50.57
7026;BME280;3554;42.132;24.786;2023-04-28T11:16:16;99679.25;;;17.20;49.90
7026;BME280;3554;42.132;24.786;2023-04-28T11:18:49;99675.84;;;17.46;47.85
7026;BME280;3554;42.132;24.786;2023-04-28T11:21:16;99650.22;;;17.46;46.76
7026;BME280;3554;42.132;24.786;2023-04-28T11:23:44;99637.69;;;17.76;48.67
7026;BME280;3554;42.132;24.786;2023-04-28T11:26:11;99673.72;;;18.45;48.10
7026;BME280;3554;42.132;24.786;2023-04-28T11:28:47;99669.03;;;18.48;45.76
7026;BME280;3554;42.132;24.786;2023-04-28T11:31:16;99671.81;;;18.47;45.71
7026;BME280;3554;42.132;24.786;2023-04-28T11:33:47;99669.31;;;18.31;43.85
7026;BME280;3554;42.132;24.786;2023-04-28T11:36:25;99670.19;;;18.44;44.65
7026;BME280;3554;42.132;24.786;2023-04-28T11:38:54;99666.50;;;18.47;43.63
7026;BME280;3554;42.132;24.786;2023-04-28T11:41:21;99663.13;;;18.57;44.85
7026;BME280;3554;42.132;24.786;2023-04-28T11:43:50;99656.13;;;18.69;43.39
7026;BME280;3554;42.132;24.786;2023-04-28T11:46:18;99669.47;;;18.92;42.48
7026;BME280;3554;42.132;24.786;2023-04-28T11:48:45;99655.38;;;19.04;43.68
7026;BME280;3554;42.132;24.786;2023-04-28T11:51:29;99652.63;;;18.68;45.32
7026;BME280;3554;42.132;24.786;2023-04-28T11:53:56;99656.25;;;18.15;46.71
7026;BME280;3554;42.132;24.786;2023-04-28T11:56:23;99655.19;;;18.18;46.60
7026;BME280;3554;42.132;24.786;2023-04-28T11:59:06;99642.69;;;18.33;47.55
7026;BME280;3554;42.132;24.786;2023-04-28T12:01:34;99644.19;;;18.24;46.90
7026;BME280;3554;42.132;24.786;2023-04-28T12:04:09;99639.03;;;18.08;46.99
7026;BME280;3554;42.132;24.786;2023-04-28T12:06:37;99635.06;;;18.15;46.78
7026;BME280;3554;42.132;24.786;2023-04-28T12:09:14;99616.31;;;18.31;47.76
7026;BME280;3554;42.132;24.786;2023-04-28T12:11:51;99604.56;;;18.48;45.83
7026;BME280;3554;42.132;24.786;2023-04-28T12:14:19;99618.56;;;18.50;43.26
7026;BME280;3554;42.132;24.786;2023-04-28T12:16:46;99621.34;;;18.61;42.99
7026;BME280;3554;42.132;24.786;2023-04-28T12:19:14;99618.41;;;18.13;42.64
7026;BME280;3554;42.132;24.786;2023-04-28T12:21:41;99607.66;;;18.02;42.91
7026;BME280;3554;42.132;24.786;2023-04-28T12:24:16;99611.59;;;18.09;43.52
7026;BME280;3554;42.132;24.786;2023-04-28T12:26:43;99607.00;;;17.86;45.50
7026;BME280;3554;42.132;24.786;2023-04-28T12:29:35;99604.00;;;17.78;47.17
7026;BME280;3554;42.132;24.786;2023-04-28T12:32:04;99600.69;;;18.27;46.58
7026;BME280;3554;42.132;24.786;2023-04-28T12:34:31;99592.31;;;18.07;47.20
7026;BME280;3554;42.132;24.786;2023-04-28T12:36:59;99589.03;;;18.04;45.31
7026;BME280;3554;42.132;24.786;2023-04-28T12:39:26;99592.63;;;18.03;45.51
7026;BME280;3554;42.132;24.786;2023-04-28T12:41:52;99594.22;;;17.66;44.80
7026;BME280;3554;42.132;24.786;2023-04-28T12:44:20;99577.63;;;17.77;46.13
7026;BME280;3554;42.132;24.786;2023-04-28T12:46:50;99574.50;;;18.09;45.81
7026;BME280;3554;42.132;24.786;2023-04-28T12:49:17;99573.59;;;17.84;44.81
7026;BME280;3554;42.132;24.786;2023-04-28T12:51:43;99574.41;;;18.11;45.93
7026;BME280;3554;42.132;24.786;2023-04-28T12:54:10;99563.44;;;18.42;44.70
7026;BME280;3554;42.132;24.786;2023-04-28T12:56:37;99570.19;;;18.34;45.82
7026;BME280;3554;42.132;24.786;2023-04-28T12:59:04;99562.66;;;18.28;44.70
7026;BME280;3554;42.132;24.786;2023-04-28T13:01:31;99562.78;;;18.26;43.94
7026;BME280;3554;42.132;24.786;2023-04-28T13:03:59;99569.63;;;18.03;44.37
7026;BME280;3554;42.132;24.786;2023-04-28T13:06:26;99549.19;;;17.40;46.37
7026;BME280;3554;42.132;24.786;2023-04-28T13:08:53;99557.78;;;17.17;46.98
7026;BME280;3554;42.132;24.786;2023-04-28T13:11:20;99551.06;;;17.52;47.79
7026;BME280;3554;42.132;24.786;2023-04-28T13:13:49;99548.94;;;17.83;47.62
7026;BME280;3554;42.132;24.786;2023-04-28T13:16:17;99532.88;;;18.24;44.03
7026;BME280;3554;42.132;24.786;2023-04-28T13:18:43;99527.34;;;18.27;44.57
7026;BME280;3554;42.132;24.786;2023-04-28T13:21:12;99542.19;;;18.04;44.59
7026;BME280;3554;42.132;24.786;2023-04-28T13:23:38;99536.13;;;17.90;43.72
7026;BME280;3554;42.132;24.786;2023-04-28T13:26:05;99543.72;;;17.82;45.06